カイロ の空港の天気 - METARとTAF

カイロ国際空港 ( HECA / CAI ) - エジプト [カイロ
飛行場実況気象(Metar)
観測時間06/24 11:30 EET (06/24 09:30 UTC)
風向・風速北 6m/s
視程10km以上
天気現象
なし
気温33℃
湿度38%
気圧1010hPa
METARHECA 240930Z 36011KT CAVOK 33/17 Q1010 NOSIG
過去の天気等 Google飛行場航空写真 Wunderground天気予報

過去48時間のMETAR

飛行場予報(TAF)
発表時間: 6/24 07:05 EET (6/24 05:05 UTC)
予報対象時間: 24日8時 EET ~ 25日14時 EET
風向・風速北北東 5m/s
視程10km以上
なし
24日8時 EET ~ 24日11時 EET に一時的に
視程6000m
少しの雲 雲底高度 760m
TAF HECA 240505Z 2406/2512 02010KT CAVOK
TEMPO 2406/2409 6000 FEW025